createdAt,value
2022-12-14T00:02:02.428Z,-4.14
2022-12-14T00:12:05.404Z,-4.23
2022-12-14T00:22:09.498Z,-4.35
2022-12-14T00:32:12.141Z,-4.43
2022-12-14T00:42:16.237Z,-4.43
2022-12-14T00:52:19.087Z,-4.44
2022-12-14T01:02:23.186Z,-4.39
2022-12-14T01:12:26.024Z,-4.36
2022-12-14T01:22:30.057Z,-4.35
2022-12-14T01:32:32.890Z,-4.45
2022-12-14T01:42:38.075Z,-4.67
2022-12-14T01:52:43.340Z,-4.70
2022-12-14T02:02:53.876Z,-4.72
2022-12-14T02:13:03.728Z,-4.83
2022-12-14T02:23:44.744Z,-4.73
2022-12-14T02:33:50.901Z,-4.84
2022-12-14T02:44:03.472Z,-5.04
2022-12-14T02:54:13.394Z,-5.20
2022-12-14T03:04:16.195Z,-5.49
2022-12-14T03:14:27.442Z,-5.62
2022-12-14T03:24:33.611Z,-5.76
2022-12-14T03:34:42.444Z,-5.86
2022-12-14T03:44:50.172Z,-5.97
2022-12-14T03:55:02.889Z,-6.20
2022-12-14T04:05:10.324Z,-6.29
2022-12-14T04:15:37.285Z,-6.41
2022-12-14T04:26:03.224Z,-6.55
2022-12-14T04:36:08.684Z,-6.50
2022-12-14T04:46:14.407Z,-6.55
2022-12-14T04:56:24.270Z,-6.47
2022-12-14T05:06:34.287Z,-6.45
2022-12-14T05:16:38.886Z,-6.46
2022-12-14T05:26:41.671Z,-6.48
2022-12-14T05:36:45.739Z,-6.60
2022-12-14T05:46:49.590Z,-6.80
2022-12-14T05:56:53.683Z,-6.78
2022-12-14T06:06:56.600Z,-6.58
2022-12-14T06:17:00.667Z,-6.48
2022-12-14T06:27:03.384Z,-6.42
2022-12-14T06:37:07.504Z,-6.39
2022-12-14T06:47:10.241Z,-6.37
2022-12-14T06:57:14.304Z,-6.36
2022-12-14T07:07:16.970Z,-6.26
2022-12-14T07:17:21.334Z,-6.23
2022-12-14T07:27:24.845Z,-6.27
2022-12-14T07:37:29.082Z,-6.45
2022-12-14T07:47:31.916Z,-6.56
2022-12-14T07:57:36.557Z,-6.61
2022-12-14T08:07:39.339Z,-6.64
2022-12-14T08:17:43.547Z,-6.50
2022-12-14T08:27:46.506Z,-6.36
2022-12-14T08:37:53.209Z,-6.23
2022-12-14T08:47:58.091Z,-6.02
2022-12-14T08:58:02.289Z,-5.83
2022-12-14T09:08:05.647Z,-5.67
2022-12-14T09:18:10.177Z,-5.33
2022-12-14T09:28:12.867Z,-4.99
2022-12-14T09:38:16.914Z,-4.68
2022-12-14T09:48:22.615Z,-4.38
2022-12-14T09:58:29.479Z,-3.95
2022-12-14T10:08:38.551Z,-3.63
2022-12-14T10:19:03.784Z,-3.31
2022-12-14T10:29:15.065Z,-2.96
2022-12-14T10:39:25.475Z,-2.66
2022-12-14T10:49:36.159Z,-2.36
2022-12-14T10:59:55.592Z,-2.08
2022-12-14T11:10:16.874Z,-1.82
2022-12-14T11:20:23.172Z,-1.49
2022-12-14T11:30:26.005Z,-1.23
2022-12-14T11:40:30.321Z,-1.03
2022-12-14T11:50:33.058Z,-0.79
2022-12-14T12:00:47.513Z,-0.50
2022-12-14T12:10:52.957Z,-0.36
2022-12-14T12:21:02.413Z,0.09
2022-12-14T12:31:11.486Z,5.01
2022-12-14T12:41:24.204Z,13.86
2022-12-14T12:51:31.050Z,13.96
2022-12-14T13:01:39.631Z,15.48
2022-12-14T13:11:43.308Z,13.50
2022-12-14T13:21:50.987Z,7.49
2022-12-14T13:31:59.914Z,5.65
2022-12-14T13:42:09.125Z,6.95
2022-12-14T13:52:31.111Z,5.65
2022-12-14T14:02:41.954Z,3.19
2022-12-14T14:12:45.406Z,2.51
2022-12-14T14:23:35.392Z,1.40
2022-12-14T14:33:47.300Z,1.33
2022-12-14T14:43:55.080Z,0.13
2022-12-14T15:04:57.210Z,-0.98
2022-12-14T15:15:03.163Z,-1.38
2022-12-14T15:25:14.239Z,-1.82
2022-12-14T15:35:19.273Z,-2.03
2022-12-14T15:45:26.251Z,-2.16
2022-12-14T15:55:33.899Z,-2.23
2022-12-14T16:05:38.025Z,-2.54
2022-12-14T16:15:43.227Z,-2.65
2022-12-14T16:25:55.219Z,-2.83
2022-12-14T16:36:03.411Z,-2.97
2022-12-14T16:46:16.469Z,-3.23
2022-12-14T16:56:21.885Z,-3.39
2022-12-14T17:06:34.147Z,-3.45
2022-12-14T17:16:36.967Z,-3.67
2022-12-14T17:26:41.042Z,-3.85
2022-12-14T17:36:43.918Z,-4.04
2022-12-14T17:46:49.962Z,-4.30
2022-12-14T17:56:52.813Z,-4.44
2022-12-14T18:06:56.977Z,-4.41
2022-12-14T18:17:01.030Z,-4.46
2022-12-14T18:27:05.264Z,-4.49
2022-12-14T18:37:08.553Z,-4.41
2022-12-14T18:47:40.157Z,-4.42
2022-12-14T18:57:35.734Z,-4.52
2022-12-14T19:07:39.841Z,-4.44
2022-12-14T19:17:42.760Z,-4.51
2022-12-14T19:38:13.823Z,-4.68
2022-12-14T19:48:18.103Z,-4.67
2022-12-14T19:58:22.167Z,-4.67
2022-12-14T20:08:28.757Z,-4.61
2022-12-14T20:18:32.273Z,-4.61
2022-12-14T20:28:36.679Z,-4.64
2022-12-14T20:38:39.645Z,-4.63
2022-12-14T20:48:43.950Z,-4.65
2022-12-14T20:58:48.162Z,-4.60
2022-12-14T21:09:06.282Z,-4.56
2022-12-14T21:19:09.054Z,-4.65
2022-12-14T21:29:14.630Z,-4.68
2022-12-14T21:39:18.753Z,-4.72
2022-12-14T21:49:23.129Z,-4.53
2022-12-14T21:59:27.683Z,-4.19
2022-12-14T22:09:31.717Z,-3.90
2022-12-14T22:19:35.044Z,-3.96
2022-12-14T22:29:39.177Z,-4.21
2022-12-14T22:39:42.095Z,-4.28
2022-12-14T22:49:47.218Z,-4.34
2022-12-14T22:59:54.603Z,-4.35
2022-12-14T23:10:15.972Z,-4.32
2022-12-14T23:20:36.413Z,-4.32
2022-12-14T23:30:58.093Z,-4.41
2022-12-14T23:41:18.646Z,-4.42
2022-12-14T23:51:40.324Z,-4.43
